Time;durP1;ratioP1;P1;durP2;ratioP2;P2;SDS_P1;SDS_P2;PMS_P1;PMS_P2;Temp;Humidity;BMP_temperature;BMP_pressure;BME280_temperature;BME280_humidity;BME280_pressure;Samples;Min_cycle;Max_cycle;Signal;HPM_P1;HPM_P2
2023/07/13 00:00:41;;;;;;;1.20;1.00;;;;;;;23.90;nan;99498.41;4965942;28;20227;-77
2023/07/13 00:03:06;;;;;;;5.60;1.83;;;;;;;23.88;nan;99498.63;4964142;28;21187;-76
2023/07/13 00:05:32;;;;;;;2.13;1.27;;;;;;;23.87;nan;99502.31;4966119;28;20211;-76
2023/07/13 00:07:57;;;;;;;1.73;1.00;;;;;;;23.87;nan;99504.16;4965251;28;20698;-76
2023/07/13 00:10:22;;;;;;;1.60;1.00;;;;;;;23.87;nan;99501.47;4969816;28;20233;-77
2023/07/13 00:12:48;;;;;;;2.27;1.40;;;;;;;23.88;nan;99495.94;4968651;28;20226;-76
2023/07/13 00:15:22;;;;;;;1.70;0.90;;;;;;;23.88;nan;99495.94;4968684;28;20221;-77
2023/07/13 00:17:55;;;;;;;3.80;1.37;;;;;;;23.87;nan;99494.25;4968685;28;20234;-76
2023/07/13 00:20:22;;;;;;;1.20;1.00;;;;;;;23.88;nan;99489.75;4968856;28;20477;-76
2023/07/13 00:22:48;;;;;;;1.63;1.20;;;;;;;23.88;nan;99501.31;4969230;28;20542;-76
2023/07/13 00:25:15;;;;;;;2.00;1.20;;;;;;;23.87;nan;99496.94;4969448;28;20478;-76
2023/07/13 00:27:42;;;;;;;3.00;1.87;;;;;;;23.79;nan;99497.91;4969233;28;21080;-76
2023/07/13 00:30:08;;;;;;;2.80;1.30;;;;;;;23.67;nan;99479.75;4982439;28;20483;-74
2023/07/13 00:32:35;;;;;;;3.93;1.43;;;;;;;23.55;nan;99492.78;4969247;28;20578;-73
2023/07/13 00:35:00;;;;;;;3.25;1.15;;;;;;;23.47;nan;99482.16;4970066;28;20486;-76
2023/07/13 00:37:26;;;;;;;2.17;1.67;;;;;;;23.43;nan;99487.03;4969176;28;20253;-77
2023/07/13 00:39:52;;;;;;;1.50;1.20;;;;;;;23.36;nan;99480.75;4963869;28;20217;-77
2023/07/13 00:42:17;;;;;;;2.57;1.27;;;;;;;23.33;nan;99481.09;4982231;28;20226;-77
2023/07/13 00:45:01;;;;;;;1.03;0.93;;;;;;;23.29;nan;99479.81;4983596;28;23132;-77
2023/07/13 00:47:26;;;;;;;1.50;1.40;;;;;;;23.22;nan;99484.22;4964158;28;20734;-76
2023/07/13 00:49:52;;;;;;;3.83;1.40;;;;;;;23.12;nan;99490.69;4966523;28;20485;-76
2023/07/13 00:52:17;;;;;;;1.70;1.17;;;;;;;23.06;nan;99490.56;4966981;28;20691;-77
2023/07/13 00:54:46;;;;;;;2.73;1.20;;;;;;;23.01;nan;99493.81;4961912;28;20228;-77
2023/07/13 00:57:16;;;;;;;2.30;1.40;;;;;;;23.01;nan;99504.53;4966993;28;20233;-76
2023/07/13 00:59:45;;;;;;;2.50;1.50;;;;;;;22.99;nan;99503.88;4968201;28;20551;-76
2023/07/13 01:02:11;;;;;;;2.17;1.30;;;;;;;22.96;nan;99501.56;4972960;28;20474;-77
2023/07/13 01:04:38;;;;;;;2.27;1.27;;;;;;;22.96;nan;99497.03;4964446;28;20479;-76
2023/07/13 01:07:06;;;;;;;1.20;1.10;;;;;;;22.98;nan;99496.84;4961748;28;20505;-76
2023/07/13 01:09:31;;;;;;;4.90;1.43;;;;;;;23.02;nan;99498.13;4968345;28;20603;-76
2023/07/13 01:11:57;;;;;;;3.00;1.60;;;;;;;23.05;nan;99494.28;4959799;28;20521;-77
2023/07/13 01:14:23;;;;;;;6.27;1.30;;;;;;;23.06;nan;99490.56;4966811;28;20530;-77
2023/07/13 01:16:49;;;;;;;2.90;1.13;;;;;;;23.05;nan;99483.56;4969289;28;20476;-76
2023/07/13 01:19:35;;;;;;;2.13;1.30;;;;;;;22.97;nan;99481.78;4966584;28;20230;-76
2023/07/13 01:22:08;;;;;;;1.20;1.10;;;;;;;22.87;nan;99479.34;4968559;28;20472;-76
2023/07/13 01:24:38;;;;;;;2.30;1.40;;;;;;;22.77;nan;99485.94;4968504;28;20566;-76
2023/07/13 01:27:05;;;;;;;1.50;1.40;;;;;;;22.64;nan;99487.38;4968092;28;20525;-76
2023/07/13 01:29:33;;;;;;;3.63;1.50;;;;;;;22.56;nan;99481.25;4967670;28;20458;-77
2023/07/13 01:31:59;;;;;;;1.23;1.10;;;;;;;22.48;nan;99482.94;4978768;28;20515;-77
2023/07/13 01:34:26;;;;;;;2.80;1.20;;;;;;;22.45;nan;99485.16;4963452;28;20444;-76
2023/07/13 01:36:53;;;;;;;1.83;1.40;;;;;;;22.47;nan;99480.47;4967548;28;20477;-76
2023/07/13 01:39:21;;;;;;;1.90;1.20;;;;;;;22.43;nan;99474.63;4969780;28;20225;-77
2023/07/13 01:41:46;;;;;;;1.50;1.40;;;;;;;22.41;nan;99473.13;4968791;28;20480;-76
2023/07/13 01:44:12;;;;;;;1.73;1.13;;;;;;;22.41;nan;99471.28;4965938;28;20536;-76
2023/07/13 01:46:37;;;;;;;1.87;1.10;;;;;;;22.43;nan;99463.91;4969196;28;20221;-77
2023/07/13 01:49:02;;;;;;;1.20;1.10;;;;;;;22.45;nan;99464.56;4982783;28;20214;-76
2023/07/13 01:51:28;;;;;;;2.80;1.40;;;;;;;22.47;nan;99467.09;4960534;28;20278;-76
2023/07/13 01:53:53;;;;;;;1.43;1.30;;;;;;;22.46;nan;99462.72;4968036;28;20232;-76
2023/07/13 01:56:19;;;;;;;4.07;1.63;;;;;;;22.43;nan;99468.44;4967930;28;20220;-77
2023/07/13 01:58:45;;;;;;;1.30;1.20;;;;;;;22.41;nan;99465.91;4961485;28;20237;-76
2023/07/13 02:01:11;;;;;;;1.80;1.43;;;;;;;22.39;nan;99456.44;4964553;28;21384;-76
2023/07/13 02:03:36;;;;;;;2.60;1.30;;;;;;;22.38;nan;99463.59;4962468;28;21051;-76
2023/07/13 02:06:02;;;;;;;1.60;1.30;;;;;;;22.37;nan;99469.16;4965578;28;20483;-76
2023/07/13 02:08:28;;;;;;;2.03;1.10;;;;;;;22.34;nan;99467.66;4969122;28;20244;-76
2023/07/13 02:10:53;;;;;;;4.70;1.70;;;;;;;22.31;nan;99463.50;4971843;28;20480;-76
2023/07/13 02:13:19;;;;;;;6.43;1.43;;;;;;;22.23;nan;99463.53;4982035;28;20221;-76
2023/07/13 02:15:45;;;;;;;1.50;1.40;;;;;;;22.06;nan;99460.09;4965785;28;20582;-76
2023/07/13 02:18:10;;;;;;;2.40;1.30;;;;;;;21.87;nan;99464.03;4961166;28;20521;-76
2023/07/13 02:20:36;;;;;;;2.33;1.40;;;;;;;21.70;nan;99472.28;4965552;28;20333;-77
2023/07/13 02:23:01;;;;;;;3.03;1.40;;;;;;;21.65;nan;99472.78;4969068;28;20290;-76
2023/07/13 02:25:26;;;;;;;4.20;1.90;;;;;;;21.64;nan;99460.44;4980324;28;20222;-76
2023/07/13 02:27:52;;;;;;;1.60;1.20;;;;;;;21.66;nan;99466.47;4981306;28;20223;-76
2023/07/13 02:30:17;;;;;;;8.63;1.93;;;;;;;21.69;nan;99471.47;4965383;28;20537;-74
2023/07/13 02:32:44;;;;;;;2.33;1.27;;;;;;;21.71;nan;99476.63;4969035;28;20758;-76
2023/07/13 02:35:10;;;;;;;2.17;1.30;;;;;;;21.69;nan;99484.00;4981251;28;20260;-76
2023/07/13 02:37:37;;;;;;;1.77;1.43;;;;;;;21.69;nan;99476.81;4968877;28;20454;-76
2023/07/13 02:40:08;;;;;;;1.97;1.20;;;;;;;21.71;nan;99476.63;4981742;28;20471;-76
2023/07/13 02:42:34;;;;;;;2.30;1.70;;;;;;;21.71;nan;99469.47;4988143;28;20620;-76
2023/07/13 02:45:00;;;;;;;1.20;1.10;;;;;;;21.74;nan;99476.25;4969170;28;20477;-75
2023/07/13 02:47:26;;;;;;;2.10;1.50;;;;;;;21.68;nan;99476.97;4964085;28;20453;-75
2023/07/13 02:49:52;;;;;;;3.80;2.57;;;;;;;21.64;nan;99479.16;4963038;28;20386;-76
2023/07/13 02:52:17;;;;;;;2.80;1.33;;;;;;;21.59;nan;99481.50;4968292;28;20870;-76
2023/07/13 02:54:43;;;;;;;8.57;1.50;;;;;;;21.50;nan;99472.69;4967816;28;20478;-76
2023/07/13 02:57:09;;;;;;;2.50;1.50;;;;;;;21.50;nan;99477.22;4955681;28;20272;-76
2023/07/13 02:59:35;;;;;;;2.60;1.50;;;;;;;21.42;nan;99478.06;4957601;28;20486;-76
2023/07/13 03:02:02;;;;;;;3.93;1.87;;;;;;;21.33;nan;99463.84;4968399;28;20236;-76
2023/07/13 03:04:28;;;;;;;2.20;1.63;;;;;;;21.28;nan;99457.31;4958855;28;20709;-75
2023/07/13 03:06:57;;;;;;;2.60;1.80;;;;;;;21.25;nan;99463.84;4957794;28;20485;-76
2023/07/13 03:09:25;;;;;;;12.47;2.70;;;;;;;21.18;nan;99461.03;4986832;28;20348;-76
2023/07/13 03:11:54;;;;;;;4.87;1.70;;;;;;;21.10;nan;99471.72;4986996;28;20483;-75
2023/07/13 03:14:25;;;;;;;1.87;1.13;;;;;;;21.06;nan;99480.22;4982320;28;20477;-76
2023/07/13 03:16:51;;;;;;;1.50;1.30;;;;;;;21.03;nan;99480.56;4959618;28;21136;-75
2023/07/13 03:19:18;;;;;;;3.33;1.83;;;;;;;21.02;nan;99484.25;4964408;28;20497;-76
2023/07/13 03:21:48;;;;;;;1.70;1.50;;;;;;;20.99;nan;99482.75;4978922;28;20606;-76
2023/07/13 03:24:13;;;;;;;1.87;1.70;;;;;;;20.96;nan;99481.25;4966109;28;20479;-76
2023/07/13 03:26:39;;;;;;;2.13;1.70;;;;;;;20.95;nan;99487.59;4964067;28;20336;-76
2023/07/13 03:29:05;;;;;;;3.80;1.60;;;;;;;20.97;nan;99482.91;4958186;28;20210;-76
2023/07/13 03:31:34;;;;;;;2.57;1.53;;;;;;;20.98;nan;99487.28;4967625;28;20517;-76
2023/07/13 03:33:59;;;;;;;2.40;1.87;;;;;;;20.98;nan;99497.09;4964239;28;20218;-76
2023/07/13 03:36:28;;;;;;;3.28;1.70;;;;;;;21.01;nan;99499.47;4959585;28;20484;-75
2023/07/13 03:38:59;;;;;;;2.50;2.07;;;;;;;21.05;nan;99494.59;4978032;28;20249;-76
2023/07/13 03:41:44;;;;;;;3.13;2.37;;;;;;;21.09;nan;99490.56;4955909;28;20648;-76
2023/07/13 03:44:11;;;;;;;4.23;2.03;;;;;;;21.11;nan;99496.59;4975900;28;20472;-76
2023/07/13 03:46:36;;;;;;;2.10;1.73;;;;;;;21.12;nan;99493.78;4970236;28;20469;-76
2023/07/13 03:49:04;;;;;;;3.30;1.60;;;;;;;21.12;nan;99490.28;4982653;28;20237;-76
2023/07/13 03:51:30;;;;;;;2.00;1.50;;;;;;;21.13;nan;99497.28;4972359;28;20334;-76
2023/07/13 03:53:56;;;;;;;2.10;1.77;;;;;;;21.13;nan;99494.59;4965360;28;20468;-76
2023/07/13 03:56:21;;;;;;;2.50;1.60;;;;;;;21.13;nan;99495.44;4967881;28;20509;-76
2023/07/13 03:58:49;;;;;;;1.60;1.20;;;;;;;21.15;nan;99496.09;4985566;28;20459;-76
2023/07/13 04:01:21;;;;;;;2.63;1.67;;;;;;;21.14;nan;99502.44;4974141;28;20209;-76
2023/07/13 04:03:47;;;;;;;4.70;1.53;;;;;;;21.12;nan;99507.13;4972375;28;20553;-76
2023/07/13 04:06:20;;;;;;;3.13;2.17;;;;;;;21.12;nan;99511.63;4959262;28;20513;-76
2023/07/13 04:08:48;;;;;;;2.63;1.63;;;;;;;21.10;nan;99514.47;4972581;28;20474;-76
2023/07/13 04:11:14;;;;;;;1.73;1.43;;;;;;;21.08;nan;99518.31;4964238;28;20485;-76
2023/07/13 04:13:39;;;;;;;1.93;1.73;;;;;;;21.06;nan;99522.97;4972888;28;20444;-76
2023/07/13 04:16:05;;;;;;;2.17;1.97;;;;;;;21.06;nan;99518.44;4988746;28;20209;-76
2023/07/13 04:18:30;;;;;;;5.67;1.70;;;;;;;21.03;nan;99517.97;4969830;28;21436;-76
2023/07/13 04:20:56;;;;;;;4.03;2.13;;;;;;;21.00;nan;99516.47;4971002;28;20236;-76
2023/07/13 04:23:21;;;;;;;3.03;2.00;;;;;;;21.00;nan;99519.97;4972480;28;20399;-76
2023/07/13 04:25:49;;;;;;;2.13;1.70;;;;;;;21.04;nan;99522.31;4968873;28;20355;-76
2023/07/13 04:28:15;;;;;;;3.10;1.53;;;;;;;21.07;nan;99530.81;4969845;28;20702;-76
2023/07/13 04:30:41;;;;;;;2.60;1.50;;;;;;;21.13;nan;99538.16;4968524;28;20482;-76
2023/07/13 04:33:08;;;;;;;2.70;1.93;;;;;;;21.20;nan;99535.66;4969462;28;20458;-77
2023/07/13 04:35:34;;;;;;;3.57;1.83;;;;;;;21.25;nan;99530.63;4970012;28;20206;-76
2023/07/13 04:38:00;;;;;;;2.80;1.80;;;;;;;21.29;nan;99536.50;4969774;28;20465;-75
2023/07/13 04:40:27;;;;;;;2.00;1.67;;;;;;;21.33;nan;99544.00;4969658;28;20568;-75
2023/07/13 04:42:53;;;;;;;3.00;1.90;;;;;;;21.39;nan;99543.34;4969250;28;20650;-76
2023/07/13 04:45:18;;;;;;;3.97;1.60;;;;;;;21.46;nan;99550.69;4971074;28;20475;-76
2023/07/13 04:47:44;;;;;;;2.33;1.50;;;;;;;21.47;nan;99545.19;4970548;28;20274;-76
2023/07/13 04:50:12;;;;;;;3.00;2.07;;;;;;;21.51;nan;99545.69;4971128;28;20272;-76
2023/07/13 04:52:38;;;;;;;1.90;1.70;;;;;;;21.57;nan;99545.81;4968165;28;20481;-76
2023/07/13 04:55:04;;;;;;;2.20;1.90;;;;;;;21.63;nan;99541.66;4971239;28;21589;-76
2023/07/13 04:57:29;;;;;;;5.23;2.10;;;;;;;21.74;nan;99546.63;4970370;28;20215;-75
2023/07/13 04:59:55;;;;;;;1.70;1.60;;;;;;;21.95;nan;99553.25;4969090;28;20453;-76
2023/07/13 05:02:21;;;;;;;2.70;1.70;;;;;;;22.19;nan;99544.31;4969994;28;20232;-76
2023/07/13 05:04:47;;;;;;;6.60;2.17;;;;;;;22.45;nan;99552.06;4970819;28;20217;-76
2023/07/13 05:07:13;;;;;;;2.10;1.47;;;;;;;22.81;nan;99551.50;4968057;28;20469;-76
2023/07/13 05:09:39;;;;;;;3.57;1.60;;;;;;;22.97;nan;99557.59;4970654;28;20456;-77
2023/07/13 05:12:07;;;;;;;2.10;1.73;;;;;;;23.18;nan;99550.75;4969605;28;20260;-77
2023/07/13 05:14:32;;;;;;;2.53;2.30;;;;;;;23.53;nan;99557.31;4967997;28;20479;-75
2023/07/13 05:16:58;;;;;;;2.17;1.50;;;;;;;23.97;nan;99563.75;4969379;28;20915;-75
2023/07/13 05:19:23;;;;;;;2.97;1.93;;;;;;;24.25;nan;99567.44;4967846;28;20314;-75
2023/07/13 05:21:49;;;;;;;3.20;2.00;;;;;;;24.37;nan;99573.16;4969175;28;20228;-75
2023/07/13 05:24:14;;;;;;;3.17;1.90;;;;;;;24.40;nan;99580.81;4969329;28;20221;-75
2023/07/13 05:26:39;;;;;;;4.00;1.67;;;;;;;24.58;nan;99575.09;4968603;28;20692;-75
2023/07/13 05:29:05;;;;;;;2.23;1.20;;;;;;;24.69;nan;99573.75;4966929;28;20225;-75
2023/07/13 05:31:30;;;;;;;3.33;2.00;;;;;;;25.00;nan;99575.31;4967934;28;20241;-75
2023/07/13 05:33:55;;;;;;;2.73;1.97;;;;;;;25.39;nan;99577.56;4962577;23;20315;-74
2023/07/13 05:36:21;;;;;;;7.57;2.80;;;;;;;25.69;nan;99575.50;4944708;28;20220;-75
2023/07/13 05:38:46;;;;;;;3.53;1.93;;;;;;;25.98;nan;99582.56;4957850;28;20562;-75
2023/07/13 05:41:11;;;;;;;4.03;1.67;;;;;;;26.31;nan;99578.38;4960470;28;20351;-76
2023/07/13 05:43:37;;;;;;;1.30;1.20;;;;;;;26.63;nan;99575.00;4960381;28;20605;-75
2023/07/13 05:46:02;;;;;;;3.57;2.03;;;;;;;26.94;nan;99581.69;4962676;28;20453;-75
2023/07/13 05:48:28;;;;;;;3.10;1.50;;;;;;;27.18;nan;99580.31;4958369;28;20684;-75
2023/07/13 05:50:53;;;;;;;3.50;1.53;;;;;;;27.40;nan;99582.81;4960311;28;20233;-75
2023/07/13 05:53:18;;;;;;;2.90;1.43;;;;;;;27.62;nan;99586.13;4962154;28;20228;-75
2023/07/13 05:55:50;;;;;;;2.93;1.40;;;;;;;27.91;nan;99584.88;4963412;28;21177;-75
2023/07/13 05:58:17;;;;;;;1.87;1.47;;;;;;;28.14;nan;99595.16;4966552;28;20309;-75
2023/07/13 06:00:43;;;;;;;3.67;1.70;;;;;;;28.27;nan;99595.13;4960103;28;20511;-75
2023/07/13 06:03:08;;;;;;;1.80;1.70;;;;;;;28.54;nan;99597.75;4962647;28;20495;-76
2023/07/13 06:05:36;;;;;;;2.30;1.60;;;;;;;28.87;nan;99590.31;4966853;28;20614;-76
2023/07/13 06:08:08;;;;;;;2.03;1.67;;;;;;;29.09;nan;99587.31;4961284;28;20218;-75
2023/07/13 06:10:36;;;;;;;1.70;1.37;;;;;;;29.34;nan;99582.72;4963954;28;21004;-75
2023/07/13 06:13:01;;;;;;;2.20;1.60;;;;;;;29.63;nan;99577.69;4961533;28;20854;-75
2023/07/13 06:15:27;;;;;;;2.40;1.63;;;;;;;29.85;nan;99585.44;4959874;28;21054;-76
2023/07/13 06:17:52;;;;;;;1.20;1.10;;;;;;;29.89;nan;99589.31;4960125;28;20260;-76
2023/07/13 06:20:18;;;;;;;5.63;2.93;;;;;;;30.01;nan;99592.97;4963713;28;20225;-76
2023/07/13 06:22:44;;;;;;;6.87;3.03;;;;;;;30.25;nan;99604.00;4964462;28;20259;-75
2023/07/13 06:25:10;;;;;;;2.03;1.83;;;;;;;30.48;nan;99601.41;4955012;28;20568;-77
2023/07/13 06:27:36;;;;;;;1.63;1.53;;;;;;;30.68;nan;99603.00;4952653;28;20832;-77
2023/07/13 06:30:01;;;;;;;1.40;1.27;;;;;;;30.93;nan;99592.91;4957343;28;20255;-77
2023/07/13 06:32:27;;;;;;;2.93;2.60;;;;;;;31.07;nan;99599.78;4951281;28;20288;-77
2023/07/13 06:34:52;;;;;;;3.30;1.30;;;;;;;31.14;nan;99596.16;4956596;28;20225;-77
2023/07/13 06:37:18;;;;;;;3.37;1.40;;;;;;;31.19;nan;99598.97;4953766;28;20309;-76
2023/07/13 06:39:43;;;;;;;2.70;1.43;;;;;;;31.14;nan;99593.44;4950607;28;20221;-77
2023/07/13 06:42:09;;;;;;;5.00;1.30;;;;;;;31.13;nan;99599.91;4955812;28;20607;-76
2023/07/13 06:44:35;;;;;;;5.33;1.87;;;;;;;31.11;nan;99600.16;4953643;28;20220;-77
2023/07/13 06:47:00;;;;;;;6.40;1.53;;;;;;;31.31;nan;99597.13;4955415;28;20225;-77
2023/07/13 06:49:25;;;;;;;3.93;1.47;;;;;;;31.45;nan;99595.84;4954541;28;20354;-77
2023/07/13 06:51:51;;;;;;;3.30;1.87;;;;;;;31.49;nan;99597.06;4954164;28;20235;-76
2023/07/13 06:54:16;;;;;;;2.50;1.47;;;;;;;31.60;nan;99602.75;4960549;28;20220;-76
2023/07/13 06:56:42;;;;;;;1.97;1.77;;;;;;;31.73;nan;99607.91;4955508;28;20534;-76
2023/07/13 06:59:08;;;;;;;10.50;3.30;;;;;;;31.93;nan;99602.97;4956049;28;20221;-77
2023/07/13 07:01:33;;;;;;;2.10;1.63;;;;;;;32.15;nan;99602.38;4952914;28;20526;-77
2023/07/13 07:03:58;;;;;;;1.77;1.60;;;;;;;32.43;nan;99608.91;4952308;28;20226;-77
2023/07/13 07:06:24;;;;;;;2.10;1.43;;;;;;;32.47;nan;99602.78;4956536;28;20232;-77
2023/07/13 07:08:54;;;;;;;2.53;1.80;;;;;;;32.48;nan;99603.63;4953492;28;20348;-77
2023/07/13 07:11:22;;;;;;;2.93;1.40;;;;;;;32.39;nan;99608.56;4952919;28;20340;-76
2023/07/13 07:13:49;;;;;;;2.23;1.70;;;;;;;32.31;nan;99606.22;4951190;28;20717;-77
2023/07/13 07:16:15;;;;;;;2.40;1.30;;;;;;;32.28;nan;99607.53;4954924;28;21054;-77
2023/07/13 07:18:40;;;;;;;3.00;1.47;;;;;;;32.42;nan;99610.00;4951982;28;20674;-78
2023/07/13 07:21:06;;;;;;;2.20;1.50;;;;;;;32.53;nan;99614.59;4956226;28;20473;-77
2023/07/13 07:23:32;;;;;;;1.63;1.30;;;;;;;32.43;nan;99617.88;4951171;28;20233;-77
2023/07/13 07:25:57;;;;;;;1.40;1.30;;;;;;;32.40;nan;99619.19;4958812;28;20281;-77
2023/07/13 07:28:22;;;;;;;2.80;1.33;;;;;;;32.48;nan;99625.38;4954179;28;20327;-77
2023/07/13 07:30:52;;;;;;;2.50;1.87;;;;;;;32.58;nan;99620.97;4954325;28;20251;-77
2023/07/13 07:33:17;;;;;;;2.80;1.70;;;;;;;32.72;nan;99621.50;4957107;28;21191;-77
2023/07/13 07:35:43;;;;;;;1.73;1.30;;;;;;;32.93;nan;99624.63;4957021;28;20477;-77
2023/07/13 07:38:09;;;;;;;1.37;1.27;;;;;;;33.14;nan;99625.84;4952539;28;20718;-77
2023/07/13 07:40:39;;;;;;;3.53;1.57;;;;;;;33.27;nan;99620.09;4954067;28;20709;-77
2023/07/13 07:43:04;;;;;;;5.77;1.40;;;;;;;33.18;nan;99625.09;4954863;28;20239;-78
2023/07/13 07:45:30;;;;;;;8.87;2.53;;;;;;;33.12;nan;99619.81;4956216;28;20485;-77
2023/07/13 07:47:58;;;;;;;2.80;1.70;;;;;;;33.24;nan;99621.41;4952649;28;20593;-78
2023/07/13 07:50:25;;;;;;;3.63;1.60;;;;;;;33.44;nan;99622.81;4953357;28;21065;-77
2023/07/13 07:52:50;;;;;;;2.83;1.63;;;;;;;33.47;nan;99623.13;4952426;28;20971;-76
2023/07/13 07:55:16;;;;;;;2.10;1.70;;;;;;;33.15;nan;99619.31;4955271;28;20480;-77
2023/07/13 07:57:42;;;;;;;3.40;2.03;;;;;;;32.69;nan;99627.41;4950757;28;20689;-77
2023/07/13 08:00:08;;;;;;;2.10;1.57;;;;;;;32.56;nan;99623.09;4953645;28;20692;-77
2023/07/13 08:02:43;;;;;;;1.93;1.33;;;;;;;32.47;nan;99626.44;4956016;28;20316;-77
2023/07/13 08:05:09;;;;;;;3.20;1.60;;;;;;;32.39;nan;99619.44;4953881;28;20462;-77
2023/07/13 08:07:38;;;;;;;3.63;1.50;;;;;;;32.38;nan;99625.97;4952765;28;20652;-77
2023/07/13 08:10:07;;;;;;;1.90;1.47;;;;;;;32.44;nan;99629.63;4956565;28;20555;-77
2023/07/13 08:12:40;;;;;;;1.57;1.47;;;;;;;32.32;nan;99629.63;4955853;28;20837;-77
2023/07/13 08:15:08;;;;;;;6.27;1.40;;;;;;;32.33;nan;99628.56;4954227;28;20477;-77
2023/07/13 08:17:34;;;;;;;2.40;1.80;;;;;;;32.19;nan;99619.84;4953432;28;20533;-76
2023/07/13 08:20:00;;;;;;;1.87;1.40;;;;;;;31.93;nan;99622.00;4955286;28;20480;-77
2023/07/13 08:22:27;;;;;;;2.53;1.40;;;;;;;31.94;nan;99626.34;4956163;28;20636;-77
2023/07/13 08:24:55;;;;;;;2.03;1.43;;;;;;;31.90;nan;99630.59;4953052;28;21036;-77
2023/07/13 08:27:26;;;;;;;4.63;1.80;;;;;;;31.72;nan;99631.53;4952808;28;20571;-77
2023/07/13 08:29:52;;;;;;;2.27;1.40;;;;;;;31.57;nan;99627.63;4960473;28;20581;-77
2023/07/13 08:32:19;;;;;;;2.40;1.20;;;;;;;31.42;nan;99626.19;4963775;28;20559;-77
2023/07/13 08:34:45;;;;;;;3.27;1.40;;;;;;;31.29;nan;99629.09;4963030;28;20568;-77
2023/07/13 08:37:11;;;;;;;2.23;1.60;;;;;;;31.09;nan;99635.66;4962914;28;20473;-78
2023/07/13 08:39:37;;;;;;;2.73;1.60;;;;;;;30.98;nan;99630.19;4964313;28;20496;-78
2023/07/13 08:42:16;;;;;;;2.43;1.70;;;;;;;30.85;nan;99628.47;4963505;28;20757;-78
2023/07/13 08:45:22;;;;;;;1.60;1.50;;;;;;;30.73;nan;99625.69;4960130;28;20220;-77
2023/07/13 08:48:01;;;;;;;3.00;1.43;;;;;;;30.40;nan;99620.69;4890850;29;20485;-78
2023/07/13 08:50:35;;;;;;;2.50;1.57;;;;;;;30.07;nan;99624.56;4892142;29;20615;-77
2023/07/13 08:53:02;;;;;;;1.97;1.70;;;;;;;30.09;nan;99624.34;4931713;28;20488;-77
2023/07/13 08:55:31;;;;;;;2.77;1.33;;;;;;;30.16;nan;99617.81;4958279;28;20530;-78
2023/07/13 08:58:11;;;;;;;2.60;1.87;;;;;;;30.31;nan;99627.47;4953842;28;20478;-78
2023/07/13 09:00:48;;;;;;;2.00;1.70;;;;;;;30.43;nan;99621.06;4954419;28;20484;-77
2023/07/13 09:03:23;;;;;;;3.70;1.67;;;;;;;30.57;nan;99621.72;4954529;28;20473;-77
2023/07/13 09:05:58;;;;;;;3.63;1.67;;;;;;;30.85;nan;99628.47;4957392;28;20252;-78
2023/07/13 09:08:35;;;;;;;3.90;1.57;;;;;;;31.05;nan;99620.06;4950260;28;20496;-78
2023/07/13 09:11:23;;;;;;;3.00;1.47;;;;;;;30.96;nan;99627.69;4954275;28;20499;-77
2023/07/13 09:14:31;;;;;;;2.80;1.47;;;;;;;30.72;nan;99634.06;4953404;28;20487;-78
2023/07/13 09:16:57;;;;;;;1.40;1.30;;;;;;;30.59;nan;99627.72;4948631;28;20500;-78
2023/07/13 09:19:32;;;;;;;2.40;1.50;;;;;;;30.67;nan;99621.16;4954748;28;20476;-78
2023/07/13 09:22:01;;;;;;;2.57;1.30;;;;;;;30.74;nan;99615.69;4955214;28;20867;-76
2023/07/13 09:24:36;;;;;;;4.40;1.60;;;;;;;30.81;nan;99621.84;4953931;28;20481;-77
2023/07/13 09:27:10;;;;;;;2.50;1.40;;;;;;;30.87;nan;99623.66;4956972;28;20864;-79
2023/07/13 09:29:40;;;;;;;2.43;1.60;;;;;;;30.54;nan;99616.78;4955092;28;20640;-79
2023/07/13 09:32:09;;;;;;;3.90;1.50;;;;;;;30.35;nan;99617.81;4956888;28;20975;-77
2023/07/13 09:34:35;;;;;;;2.50;1.33;;;;;;;30.30;nan;99614.94;4956333;28;20484;-76
2023/07/13 09:37:00;;;;;;;3.20;1.30;;;;;;;30.38;nan;99620.06;4951976;28;20925;-78
2023/07/13 09:39:38;;;;;;;1.70;1.27;;;;;;;30.49;nan;99618.47;4955004;28;20806;-79
2023/07/13 09:42:07;;;;;;;2.60;1.60;;;;;;;30.53;nan;99612.38;4954567;28;20404;-78
2023/07/13 09:44:51;;;;;;;4.27;1.40;;;;;;;30.63;nan;99618.09;4951225;28;20997;-76
2023/07/13 09:47:29;;;;;;;2.97;1.53;;;;;;;30.69;nan;99626.38;4955865;28;20488;-78
2023/07/13 09:50:14;;;;;;;3.97;1.57;;;;;;;30.53;nan;99614.28;4954416;28;21660;-78
2023/07/13 09:52:47;;;;;;;2.80;1.40;;;;;;;30.42;nan;99618.56;4955808;28;21079;-77
2023/07/13 09:55:36;;;;;;;2.30;1.37;;;;;;;30.37;nan;99605.69;4954358;28;20487;-76
2023/07/13 09:58:14;;;;;;;2.80;1.77;;;;;;;30.53;nan;99615.09;4953053;28;21337;-77
2023/07/13 10:00:40;;;;;;;2.00;1.30;;;;;;;30.69;nan;99615.53;4951350;28;20530;-78
2023/07/13 10:03:20;;;;;;;2.73;1.30;;;;;;;30.84;nan;99605.97;4951912;28;20568;-78
2023/07/13 10:05:47;;;;;;;2.10;1.70;;;;;;;30.75;nan;99610.00;4954638;28;20480;-76
2023/07/13 10:08:25;;;;;;;3.40;1.30;;;;;;;30.59;nan;99608.75;4952869;28;20492;-77
2023/07/13 10:11:08;;;;;;;2.40;1.30;;;;;;;30.58;nan;99614.41;4948529;28;20490;-77
2023/07/13 10:13:36;;;;;;;5.13;1.60;;;;;;;30.57;nan;99612.75;4953336;28;20483;-76
2023/07/13 10:16:05;;;;;;;3.50;1.30;;;;;;;30.63;nan;99620.81;4952289;28;20985;-76
2023/07/13 10:18:38;;;;;;;1.60;1.40;;;;;;;30.84;nan;99618.69;4953579;28;20481;-76
2023/07/13 10:21:13;;;;;;;4.10;1.73;;;;;;;30.78;nan;99625.00;4954229;28;20833;-78
2023/07/13 10:23:39;;;;;;;2.50;1.27;;;;;;;30.67;nan;99625.78;4950886;28;20491;-77
2023/07/13 10:26:11;;;;;;;2.73;1.43;;;;;;;30.46;nan;99614.38;4953617;28;20473;-77
2023/07/13 10:28:39;;;;;;;2.50;1.20;;;;;;;30.14;nan;99614.50;4950837;28;20222;-77
2023/07/13 10:31:11;;;;;;;5.47;1.50;;;;;;;29.77;nan;99617.16;4951115;28;20724;-78
2023/07/13 10:33:38;;;;;;;1.47;1.37;;;;;;;29.73;nan;99615.94;4953503;28;20520;-77
2023/07/13 10:36:16;;;;;;;2.60;2.17;;;;;;;29.85;nan;99617.94;4954000;28;20487;-75
2023/07/13 10:38:43;;;;;;;2.17;1.40;;;;;;;30.14;nan;99614.50;4954045;28;21179;-77
2023/07/13 10:41:17;;;;;;;2.83;1.40;;;;;;;30.49;nan;99611.19;4952131;28;20493;-76
2023/07/13 10:43:45;;;;;;;1.70;1.60;;;;;;;30.71;nan;99625.09;4950345;28;20494;-77
2023/07/13 10:46:14;;;;;;;3.10;1.30;;;;;;;30.76;nan;99618.97;4950866;28;20475;-75
2023/07/13 10:48:41;;;;;;;4.80;1.60;;;;;;;30.77;nan;99618.75;4951330;28;20920;-76
2023/07/13 10:51:07;;;;;;;2.13;1.23;;;;;;;30.81;nan;99622.69;4952542;28;20536;-75
2023/07/13 10:53:36;;;;;;;2.50;1.20;;;;;;;30.75;nan;99626.28;4954259;28;20481;-77
2023/07/13 10:56:05;;;;;;;1.43;1.27;;;;;;;30.72;nan;99623.22;4953757;28;20814;-76
2023/07/13 10:58:39;;;;;;;4.33;1.70;;;;;;;30.59;nan;99619.59;4948263;28;21032;-76
2023/07/13 11:01:16;;;;;;;4.03;1.83;;;;;;;30.71;nan;99616.13;4946814;28;20480;-76
2023/07/13 11:03:59;;;;;;;2.50;1.60;;;;;;;30.86;nan;99609.25;4940224;28;20559;-77
2023/07/13 11:06:29;;;;;;;1.97;1.30;;;;;;;31.04;nan;99618.41;4946841;28;20840;-77
2023/07/13 11:09:03;;;;;;;3.33;1.20;;;;;;;31.00;nan;99612.63;4950619;28;20568;-75
2023/07/13 11:11:36;;;;;;;2.30;1.33;;;;;;;30.97;nan;99607.63;4949940;28;20599;-77
2023/07/13 11:14:05;;;;;;;2.13;1.10;;;;;;;30.89;nan;99609.84;4953424;28;20842;-77
2023/07/13 11:16:46;;;;;;;2.00;1.30;;;;;;;30.76;nan;99608.97;4950185;28;21023;-75
2023/07/13 11:19:14;;;;;;;5.70;1.50;;;;;;;30.73;nan;99605.88;4956378;28;20492;-77
2023/07/13 11:22:07;;;;;;;2.43;1.57;;;;;;;30.82;nan;99599.13;4953364;28;20477;-76
2023/07/13 11:24:49;;;;;;;1.47;1.37;;;;;;;30.92;nan;99602.09;4950461;28;21042;-76
2023/07/13 11:27:36;;;;;;;1.73;1.33;;;;;;;30.92;nan;99590.41;4958641;28;20508;-77
2023/07/13 11:30:24;;;;;;;1.50;1.30;;;;;;;30.96;nan;99594.31;4959633;28;20478;-76
2023/07/13 11:33:12;;;;;;;1.87;1.40;;;;;;;30.91;nan;99597.72;4998079;23;20599;-81
2023/07/13 11:35:46;;;;;;;2.17;1.20;;;;;;;30.88;nan;99595.47;4930405;28;20896;-81
2023/07/13 11:38:20;;;;;;;3.93;1.97;;;;;;;30.98;nan;99594.94;4939827;28;20503;-80
2023/07/13 11:40:47;;;;;;;5.90;1.27;;;;;;;31.09;nan;99584.09;4947076;28;20543;-81
2023/07/13 11:43:15;;;;;;;1.03;0.93;;;;;;;31.03;nan;99589.63;4941075;28;20486;-80
2023/07/13 11:45:42;;;;;;;2.40;1.30;;;;;;;31.11;nan;99593.88;4927665;28;20573;-77
2023/07/13 11:48:25;;;;;;;2.87;1.43;;;;;;;31.15;nan;99593.19;4922682;28;20486;-79
2023/07/13 11:51:04;;;;;;;1.60;1.40;;;;;;;31.00;nan;99599.06;4922307;28;20564;-80
2023/07/13 11:53:45;;;;;;;2.40;1.37;;;;;;;30.83;nan;99592.63;4923378;28;20556;-80
2023/07/13 11:56:11;;;;;;;4.63;1.73;;;;;;;30.84;nan;99597.00;4922469;28;20473;-81
2023/07/13 11:58:36;;;;;;;3.00;1.23;;;;;;;30.85;nan;99585.91;4922207;28;20490;-80